Time;durP1;ratioP1;P1;durP2;ratioP2;P2;SDS_P1;SDS_P2;PMS_P1;PMS_P2;Temp;Humidity;BMP_temperature;BMP_pressure;BME280_temperature;BME280_humidity;BME280_pressure;Samples;Min_cycle;Max_cycle;Signal;HPM_P1;HPM_P2
2021/09/10 00:02:09;;;;;;;17.10;13.00;;;;;;;;;;4792747;29;20045;-85
2021/09/10 00:04:34;;;;;;;16.50;13.20;;;;;;;;;;4796769;29;20436;-84
2021/09/10 00:07:00;;;;;;;16.77;13.75;;;;;;;;;;4808752;29;20038;-83
2021/09/10 00:09:25;;;;;;;16.48;13.25;;;;;;;;;;4790842;29;20088;-85
2021/09/10 00:11:51;;;;;;;16.05;13.35;;;;;;;;;;4794237;29;20444;-85
2021/09/10 00:14:16;;;;;;;17.45;13.60;;;;;;;;;;4791511;29;20051;-84
2021/09/10 00:16:41;;;;;;;16.23;13.70;;;;;;;;;;4804140;29;20392;-85
2021/09/10 00:19:07;;;;;;;15.88;13.73;;;;;;;;;;4799880;29;20034;-84
2021/09/10 00:21:32;;;;;;;18.05;14.38;;;;;;;;;;4824908;29;20219;-84
2021/09/10 00:23:58;;;;;;;18.23;14.10;;;;;;;;;;4793482;29;20046;-84
2021/09/10 00:26:26;;;;;;;18.45;13.70;;;;;;;;;;4824001;29;20030;-84
2021/09/10 00:28:52;;;;;;;15.98;13.48;;;;;;;;;;4807931;29;20026;-84
2021/09/10 00:31:17;;;;;;;18.40;13.65;;;;;;;;;;4808762;29;20037;-85
2021/09/10 00:33:43;;;;;;;15.25;13.23;;;;;;;;;;4799437;29;20054;-84
2021/09/10 00:36:08;;;;;;;18.40;13.75;;;;;;;;;;4778736;29;20045;-84
2021/09/10 00:38:34;;;;;;;19.80;13.68;;;;;;;;;;4792036;29;20568;-84
2021/09/10 00:40:59;;;;;;;15.68;13.18;;;;;;;;;;4809225;29;20026;-84
2021/09/10 00:43:25;;;;;;;16.70;13.48;;;;;;;;;;4808374;29;20030;-84
2021/09/10 00:45:51;;;;;;;15.98;13.57;;;;;;;;;;4808334;29;21525;-84
2021/09/10 00:48:20;;;;;;;14.93;12.98;;;;;;;;;;4789801;29;20087;-84
2021/09/10 00:50:46;;;;;;;16.38;13.45;;;;;;;;;;4805614;29;20538;-84
2021/09/10 00:53:12;;;;;;;17.52;13.38;;;;;;;;;;4802007;29;20376;-84
2021/09/10 00:55:39;;;;;;;16.25;13.15;;;;;;;;;;4814332;29;20046;-84
2021/09/10 00:58:05;;;;;;;18.00;13.13;;;;;;;;;;4801080;29;20408;-84
2021/09/10 01:00:31;;;;;;;16.52;13.45;;;;;;;;;;4808010;29;20047;-85
2021/09/10 01:02:56;;;;;;;16.15;13.30;;;;;;;;;;4799408;29;20041;-85
2021/09/10 01:05:22;;;;;;;16.05;12.48;;;;;;;;;;4824282;29;20087;-84
2021/09/10 01:07:48;;;;;;;15.10;12.15;;;;;;;;;;4806671;29;20038;-84
2021/09/10 01:10:15;;;;;;;16.13;12.65;;;;;;;;;;4805666;29;20030;-84
2021/09/10 01:12:41;;;;;;;18.58;13.00;;;;;;;;;;4782866;29;20035;-85
2021/09/10 01:15:08;;;;;;;18.92;12.70;;;;;;;;;;4806861;29;20455;-84
2021/09/10 01:17:35;;;;;;;16.17;12.23;;;;;;;;;;4808989;29;20115;-84
2021/09/10 01:20:01;;;;;;;17.30;12.40;;;;;;;;;;4806607;29;20069;-84
2021/09/10 01:22:26;;;;;;;18.30;12.68;;;;;;;;;;4822178;29;20058;-84
2021/09/10 01:25:18;;;;;;;19.05;11.77;;;;;;;;;;4784958;29;20034;-85
2021/09/10 01:27:46;;;;;;;17.65;12.40;;;;;;;;;;4804809;29;20545;-84
2021/09/10 01:30:16;;;;;;;17.40;12.43;;;;;;;;;;4807592;29;20037;-84
2021/09/10 01:32:42;;;;;;;16.73;11.57;;;;;;;;;;4803421;29;20510;-84
2021/09/10 01:35:08;;;;;;;16.08;11.73;;;;;;;;;;4804323;29;20153;-85
2021/09/10 01:37:34;;;;;;;16.52;11.27;;;;;;;;;;4808331;29;20038;-85
2021/09/10 01:40:00;;;;;;;18.83;12.27;;;;;;;;;;4807231;29;20546;-85
2021/09/10 01:42:26;;;;;;;16.40;11.57;;;;;;;;;;4822710;29;20042;-84
2021/09/10 01:44:52;;;;;;;18.00;11.40;;;;;;;;;;4802831;29;20030;-85
2021/09/10 01:47:18;;;;;;;15.98;10.80;;;;;;;;;;4789843;29;20118;-84
2021/09/10 01:49:43;;;;;;;15.60;10.68;;;;;;;;;;4823582;29;20491;-84
2021/09/10 01:52:09;;;;;;;16.17;11.00;;;;;;;;;;4800699;29;20041;-84
2021/09/10 01:54:34;;;;;;;15.15;10.60;;;;;;;;;;4808089;29;20078;-84
2021/09/10 01:57:00;;;;;;;17.33;11.15;;;;;;;;;;4808344;29;20038;-84
2021/09/10 01:59:25;;;;;;;15.77;10.65;;;;;;;;;;4803625;29;20050;-85
2021/09/10 02:01:51;;;;;;;15.75;10.35;;;;;;;;;;4806907;29;20039;-84
2021/09/10 02:04:18;;;;;;;14.40;11.00;;;;;;;;;;4794130;29;20190;-84
2021/09/10 02:06:44;;;;;;;16.20;10.32;;;;;;;;;;4823211;29;20046;-84
2021/09/10 02:09:09;;;;;;;13.45;10.25;;;;;;;;;;4806708;29;20034;-84
2021/09/10 02:11:35;;;;;;;15.07;10.48;;;;;;;;;;4807210;29;20038;-85
2021/09/10 02:14:00;;;;;;;14.35;10.45;;;;;;;;;;4798665;29;20375;-84
2021/09/10 02:16:26;;;;;;;14.68;10.18;;;;;;;;;;4822194;29;20110;-84
2021/09/10 02:18:51;;;;;;;14.70;9.95;;;;;;;;;;4791234;29;20521;-85
2021/09/10 02:21:16;;;;;;;14.65;10.65;;;;;;;;;;4822276;29;20113;-85
2021/09/10 02:23:42;;;;;;;14.45;10.13;;;;;;;;;;4808214;29;20045;-85
2021/09/10 02:26:07;;;;;;;14.43;9.77;;;;;;;;;;4803083;29;20069;-84
2021/09/10 02:28:33;;;;;;;15.45;10.50;;;;;;;;;;4797487;29;20053;-85
2021/09/10 02:30:58;;;;;;;12.82;9.75;;;;;;;;;;4791730;29;20498;-84
2021/09/10 02:33:24;;;;;;;15.43;10.35;;;;;;;;;;4807757;29;20376;-84
2021/09/10 02:35:50;;;;;;;13.10;10.10;;;;;;;;;;4807001;29;20054;-84
2021/09/10 02:38:15;;;;;;;14.05;10.32;;;;;;;;;;4791584;29;20399;-84
2021/09/10 02:40:41;;;;;;;12.80;9.70;;;;;;;;;;4807493;29;20087;-83
2021/09/10 02:43:07;;;;;;;14.10;10.00;;;;;;;;;;4776688;29;20468;-85
2021/09/10 02:45:33;;;;;;;12.85;9.95;;;;;;;;;;4792519;29;20058;-84
2021/09/10 02:47:58;;;;;;;14.75;9.55;;;;;;;;;;4802898;29;20045;-85
2021/09/10 02:50:24;;;;;;;16.50;10.23;;;;;;;;;;4798088;29;20046;-84
2021/09/10 02:52:51;;;;;;;11.50;9.45;;;;;;;;;;4824761;29;20030;-84
2021/09/10 02:55:17;;;;;;;13.73;9.90;;;;;;;;;;4787754;29;20030;-84
2021/09/10 02:57:42;;;;;;;12.98;9.75;;;;;;;;;;4825898;29;20038;-83
2021/09/10 03:00:08;;;;;;;12.65;9.45;;;;;;;;;;4796889;29;20125;-84
2021/09/10 03:02:34;;;;;;;13.15;9.85;;;;;;;;;;4793627;29;20043;-85
2021/09/10 03:04:59;;;;;;;11.95;8.88;;;;;;;;;;4810648;29;20115;-83
2021/09/10 03:07:24;;;;;;;11.38;9.20;;;;;;;;;;4817730;29;20506;-83
2021/09/10 03:09:50;;;;;;;14.38;10.05;;;;;;;;;;4803004;29;20038;-85
2021/09/10 03:12:15;;;;;;;10.38;8.63;;;;;;;;;;4825312;29;20026;-84
2021/09/10 03:14:41;;;;;;;12.05;8.65;;;;;;;;;;4779968;29;20039;-84
2021/09/10 03:17:06;;;;;;;11.10;9.07;;;;;;;;;;4801885;29;20034;-84
2021/09/10 03:19:32;;;;;;;12.07;9.25;;;;;;;;;;4826180;29;20034;-84
2021/09/10 03:21:57;;;;;;;13.05;9.68;;;;;;;;;;4809559;29;20052;-83
2021/09/10 03:24:22;;;;;;;13.05;9.02;;;;;;;;;;4794728;29;20038;-84
2021/09/10 03:26:48;;;;;;;12.57;8.30;;;;;;;;;;4795035;29;20406;-84
2021/09/10 03:29:13;;;;;;;10.43;8.20;;;;;;;;;;4802594;29;20121;-84
2021/09/10 03:31:39;;;;;;;10.30;8.77;;;;;;;;;;4801307;29;20132;-84
2021/09/10 03:34:05;;;;;;;13.77;8.70;;;;;;;;;;4805788;29;20137;-84
2021/09/10 03:36:30;;;;;;;11.32;8.20;;;;;;;;;;4810272;29;20046;-85
2021/09/10 03:38:56;;;;;;;12.00;8.52;;;;;;;;;;4793614;29;20039;-84
2021/09/10 03:41:22;;;;;;;11.38;9.13;;;;;;;;;;4792100;29;20402;-84
2021/09/10 03:43:52;;;;;;;9.93;8.75;;;;;;;;;;4810806;29;20563;-84
2021/09/10 03:46:18;;;;;;;10.20;8.70;;;;;;;;;;4796670;29;20070;-84
2021/09/10 03:48:44;;;;;;;11.57;8.95;;;;;;;;;;4827456;29;20512;-84
2021/09/10 03:51:09;;;;;;;12.07;9.00;;;;;;;;;;4792432;29;20066;-84
2021/09/10 03:53:36;;;;;;;11.07;8.40;;;;;;;;;;4823440;29;20068;-85
2021/09/10 03:56:01;;;;;;;12.70;8.48;;;;;;;;;;4824961;29;20042;-84
2021/09/10 03:58:27;;;;;;;9.90;8.05;;;;;;;;;;4798254;29;20034;-84
2021/09/10 04:00:52;;;;;;;10.50;8.63;;;;;;;;;;4807961;29;20038;-85
2021/09/10 04:03:17;;;;;;;10.60;7.97;;;;;;;;;;4790860;29;20099;-85
2021/09/10 04:05:43;;;;;;;9.77;8.48;;;;;;;;;;4804395;29;20498;-84
2021/09/10 04:08:08;;;;;;;10.85;8.30;;;;;;;;;;4774645;29;20058;-84
2021/09/10 04:10:34;;;;;;;10.57;7.95;;;;;;;;;;4780788;29;20042;-84
2021/09/10 04:13:00;;;;;;;9.77;7.85;;;;;;;;;;4809605;29;20049;-84
2021/09/10 04:15:26;;;;;;;12.18;8.25;;;;;;;;;;4793625;29;20092;-85
2021/09/10 04:17:51;;;;;;;11.75;8.07;;;;;;;;;;4795614;29;20069;-83
2021/09/10 04:20:17;;;;;;;8.68;7.65;;;;;;;;;;4810063;29;20506;-83
2021/09/10 04:22:43;;;;;;;10.63;7.63;;;;;;;;;;4774177;29;20126;-83
2021/09/10 04:25:08;;;;;;;9.10;7.88;;;;;;;;;;4801080;29;20030;-84
2021/09/10 04:27:34;;;;;;;10.32;8.13;;;;;;;;;;4809294;29;20451;-85
2021/09/10 04:30:00;;;;;;;12.15;7.75;;;;;;;;;;4825643;29;20061;-84
2021/09/10 04:32:25;;;;;;;12.75;8.27;;;;;;;;;;4794489;29;20033;-84
2021/09/10 04:34:51;;;;;;;11.35;7.72;;;;;;;;;;4794903;29;20057;-83
2021/09/10 04:37:17;;;;;;;10.65;7.68;;;;;;;;;;4809119;29;20129;-85
2021/09/10 04:39:42;;;;;;;9.63;7.60;;;;;;;;;;4807058;29;20118;-84
2021/09/10 04:42:08;;;;;;;13.02;8.13;;;;;;;;;;4806224;29;20028;-83
2021/09/10 04:44:34;;;;;;;11.60;7.40;;;;;;;;;;4809603;29;20041;-83
2021/09/10 04:47:00;;;;;;;10.38;7.95;;;;;;;;;;4794862;29;20038;-83
2021/09/10 04:49:25;;;;;;;12.50;8.15;;;;;;;;;;4825191;29;20066;-83
2021/09/10 04:51:51;;;;;;;11.32;8.07;;;;;;;;;;4820577;29;20061;-83
2021/09/10 04:54:16;;;;;;;10.80;7.75;;;;;;;;;;4804253;29;20039;-84
2021/09/10 04:56:43;;;;;;;11.63;7.93;;;;;;;;;;4776481;29;20034;-83
2021/09/10 04:59:09;;;;;;;12.75;7.85;;;;;;;;;;4825140;29;20070;-83
2021/09/10 05:01:34;;;;;;;8.70;7.45;;;;;;;;;;4806656;29;20070;-84
2021/09/10 05:03:59;;;;;;;12.82;7.75;;;;;;;;;;4808425;29;20038;-83
2021/09/10 05:06:25;;;;;;;9.93;7.22;;;;;;;;;;4807382;29;20034;-83
2021/09/10 05:08:50;;;;;;;10.52;7.40;;;;;;;;;;4824667;29;20046;-83
2021/09/10 05:11:16;;;;;;;10.32;7.40;;;;;;;;;;4808871;29;20534;-82
2021/09/10 05:13:41;;;;;;;10.82;7.68;;;;;;;;;;4809324;29;20027;-84
2021/09/10 05:16:07;;;;;;;10.73;7.60;;;;;;;;;;4807881;29;20506;-83
2021/09/10 05:18:38;;;;;;;10.00;7.30;;;;;;;;;;4791300;29;20045;-83
2021/09/10 05:21:05;;;;;;;10.50;7.85;;;;;;;;;;4824953;29;20148;-83
2021/09/10 05:23:30;;;;;;;9.00;7.25;;;;;;;;;;4794505;29;20048;-84
2021/09/10 05:25:57;;;;;;;9.90;7.65;;;;;;;;;;4809067;29;20034;-84
2021/09/10 05:28:22;;;;;;;14.35;7.88;;;;;;;;;;4802426;29;20035;-83
2021/09/10 05:30:48;;;;;;;9.32;7.18;;;;;;;;;;4788009;29;20053;-84
2021/09/10 05:33:13;;;;;;;10.15;7.63;;;;;;;;;;4807303;29;20424;-83
2021/09/10 05:35:39;;;;;;;9.40;7.13;;;;;;;;;;4825549;29;20152;-84
2021/09/10 05:38:04;;;;;;;10.30;7.78;;;;;;;;;;4774799;29;20035;-83
2021/09/10 05:40:39;;;;;;;10.50;7.97;;;;;;;;;;4784392;29;20407;-84
2021/09/10 05:43:05;;;;;;;11.73;7.63;;;;;;;;;;4803826;29;20046;-83
2021/09/10 05:45:30;;;;;;;8.95;7.25;;;;;;;;;;4809154;29;20034;-83
2021/09/10 05:47:56;;;;;;;9.20;7.32;;;;;;;;;;4804044;29;20034;-85
2021/09/10 05:50:22;;;;;;;9.63;7.40;;;;;;;;;;4803847;29;20380;-83
2021/09/10 05:52:47;;;;;;;10.20;7.47;;;;;;;;;;4808848;29;20065;-85
2021/09/10 05:55:14;;;;;;;10.77;7.25;;;;;;;;;;4809727;29;20035;-84
2021/09/10 05:57:40;;;;;;;11.30;7.13;;;;;;;;;;4808737;29;20034;-85
2021/09/10 06:00:06;;;;;;;10.93;7.68;;;;;;;;;;4794186;29;20102;-83
2021/09/10 06:02:32;;;;;;;10.15;7.45;;;;;;;;;;4807626;29;20034;-84
2021/09/10 06:05:00;;;;;;;13.75;7.72;;;;;;;;;;4792814;29;20491;-84
2021/09/10 06:07:26;;;;;;;10.43;7.40;;;;;;;;;;4798897;29;20125;-84
2021/09/10 06:09:52;;;;;;;10.95;7.38;;;;;;;;;;4783133;29;20130;-85
2021/09/10 06:12:17;;;;;;;8.75;7.38;;;;;;;;;;4806624;29;20105;-84
2021/09/10 06:14:43;;;;;;;9.90;7.53;;;;;;;;;;4789487;29;20035;-84
2021/09/10 06:17:08;;;;;;;9.27;7.85;;;;;;;;;;4805839;29;20064;-84
2021/09/10 06:19:34;;;;;;;11.20;7.55;;;;;;;;;;4791641;29;20419;-84
2021/09/10 06:22:17;;;;;;;10.30;7.85;;;;;;;;;;4808279;29;20387;-84
2021/09/10 06:24:45;;;;;;;11.02;7.20;;;;;;;;;;4800781;29;20039;-83
2021/09/10 06:27:11;;;;;;;8.88;7.07;;;;;;;;;;4787284;29;20640;-81
2021/09/10 06:29:38;;;;;;;8.52;7.28;;;;;;;;;;4803742;29;20137;-81
2021/09/10 06:32:04;;;;;;;10.15;7.32;;;;;;;;;;4810466;29;20030;-80
2021/09/10 06:34:30;;;;;;;10.35;7.50;;;;;;;;;;4803560;29;20165;-80
2021/09/10 06:36:55;;;;;;;11.90;8.52;;;;;;;;;;4823714;29;20100;-82
2021/09/10 06:39:21;;;;;;;10.45;7.60;;;;;;;;;;4809286;29;20038;-82
2021/09/10 06:41:46;;;;;;;10.43;7.10;;;;;;;;;;4820533;29;20034;-80
2021/09/10 06:44:12;;;;;;;10.02;7.60;;;;;;;;;;4813850;29;20062;-81
2021/09/10 06:46:38;;;;;;;9.38;7.45;;;;;;;;;;4790813;29;20487;-82
2021/09/10 06:49:04;;;;;;;10.38;7.63;;;;;;;;;;4798625;29;20034;-81
2021/09/10 06:51:30;;;;;;;9.85;7.97;;;;;;;;;;4822857;29;20058;-82
2021/09/10 06:53:56;;;;;;;8.80;6.88;;;;;;;;;;4813012;29;20038;-82
2021/09/10 06:56:21;;;;;;;11.65;7.93;;;;;;;;;;4829850;29;20402;-81
2021/09/10 06:58:47;;;;;;;9.00;7.30;;;;;;;;;;4795127;29;20053;-83
2021/09/10 07:01:13;;;;;;;10.25;7.43;;;;;;;;;;4806785;29;20034;-81
2021/09/10 07:03:38;;;;;;;10.63;7.32;;;;;;;;;;4825737;29;20046;-82
2021/09/10 07:06:04;;;;;;;9.05;7.13;;;;;;;;;;4779210;29;20030;-82
2021/09/10 07:08:32;;;;;;;12.55;7.90;;;;;;;;;;4829624;29;20032;-83
2021/09/10 07:10:57;;;;;;;12.30;8.55;;;;;;;;;;4810446;29;20027;-83
2021/09/10 07:13:23;;;;;;;9.90;7.65;;;;;;;;;;4807842;29;20072;-81
2021/09/10 07:15:49;;;;;;;10.43;7.88;;;;;;;;;;4826036;29;20226;-83
2021/09/10 07:18:15;;;;;;;10.40;7.75;;;;;;;;;;4824185;29;20030;-81
2021/09/10 07:20:41;;;;;;;10.30;8.00;;;;;;;;;;4808031;29;20469;-81
2021/09/10 07:23:07;;;;;;;10.30;7.97;;;;;;;;;;4799307;29;20062;-83
2021/09/10 07:25:34;;;;;;;10.23;6.90;;;;;;;;;;4812086;29;20106;-82
2021/09/10 07:27:59;;;;;;;10.05;7.38;;;;;;;;;;4828931;29;20050;-82
2021/09/10 07:30:25;;;;;;;11.80;7.68;;;;;;;;;;4829143;29;20034;-81
2021/09/10 07:32:50;;;;;;;9.98;7.63;;;;;;;;;;4812393;29;20118;-83
2021/09/10 07:35:16;;;;;;;8.75;7.13;;;;;;;;;;4825779;29;20054;-83
2021/09/10 07:37:44;;;;;;;9.65;7.97;;;;;;;;;;4798318;29;20410;-81
2021/09/10 07:40:11;;;;;;;9.00;7.55;;;;;;;;;;4814032;29;20038;-83
2021/09/10 07:42:36;;;;;;;10.38;7.60;;;;;;;;;;4793888;29;20031;-83
2021/09/10 07:45:02;;;;;;;9.63;7.88;;;;;;;;;;4783638;29;20487;-82
2021/09/10 07:47:28;;;;;;;8.85;6.97;;;;;;;;;;4824411;29;20113;-82
2021/09/10 07:49:54;;;;;;;12.50;8.07;;;;;;;;;;4811025;29;20058;-82
2021/09/10 07:52:19;;;;;;;9.68;7.50;;;;;;;;;;4812433;29;20450;-82
2021/09/10 07:54:45;;;;;;;12.65;7.55;;;;;;;;;;4813602;29;20194;-83
2021/09/10 07:57:11;;;;;;;10.32;7.13;;;;;;;;;;4788765;29;20387;-81
2021/09/10 07:59:38;;;;;;;10.32;7.57;;;;;;;;;;4813265;29;20042;-83
2021/09/10 08:02:04;;;;;;;11.25;7.03;;;;;;;;;;4820142;29;20035;-83
2021/09/10 08:04:29;;;;;;;9.90;7.40;;;;;;;;;;4807272;29;20418;-83
2021/09/10 08:06:55;;;;;;;8.50;6.85;;;;;;;;;;4801634;29;20440;-82
2021/09/10 08:09:20;;;;;;;10.65;7.93;;;;;;;;;;4823632;29;20555;-83
2021/09/10 08:11:46;;;;;;;8.82;7.38;;;;;;;;;;4806596;29;20038;-81
2021/09/10 08:14:11;;;;;;;9.63;7.15;;;;;;;;;;4796310;29;20037;-82
2021/09/10 08:16:37;;;;;;;10.02;6.72;;;;;;;;;;4786703;29;20026;-83
2021/09/10 08:19:03;;;;;;;12.32;7.63;;;;;;;;;;4813199;29;20491;-82
2021/09/10 08:21:28;;;;;;;11.23;6.63;;;;;;;;;;4808860;29;20101;-83
2021/09/10 08:23:54;;;;;;;9.52;6.35;;;;;;;;;;4802044;29;20081;-83
2021/09/10 08:26:19;;;;;;;8.30;6.38;;;;;;;;;;4795079;29;20042;-82
2021/09/10 08:28:45;;;;;;;9.38;6.32;;;;;;;;;;4796622;29;20034;-82
2021/09/10 08:31:12;;;;;;;8.77;6.13;;;;;;;;;;4812456;29;20060;-82
2021/09/10 08:33:37;;;;;;;8.60;6.30;;;;;;;;;;4829539;29;20046;-82
2021/09/10 08:36:03;;;;;;;11.07;6.55;;;;;;;;;;4811692;29;20069;-82
2021/09/10 08:38:29;;;;;;;10.80;6.30;;;;;;;;;;4800947;29;20065;-83
2021/09/10 08:40:57;;;;;;;9.27;6.53;;;;;;;;;;4812887;29;20113;-82
2021/09/10 08:43:24;;;;;;;11.23;6.40;;;;;;;;;;4815317;29;20380;-83
2021/09/10 08:45:50;;;;;;;8.70;6.15;;;;;;;;;;4827613;29;20034;-81
2021/09/10 08:48:19;;;;;;;9.60;6.68;;;;;;;;;;4799497;29;20510;-83
2021/09/10 08:50:48;;;;;;;8.95;6.05;;;;;;;;;;4795936;29;20038;-82
2021/09/10 08:53:13;;;;;;;11.00;6.50;;;;;;;;;;4793998;29;20034;-80
2021/09/10 08:55:38;;;;;;;11.40;5.93;;;;;;;;;;4827999;29;20049;-82
2021/09/10 08:58:04;;;;;;;8.70;5.82;;;;;;;;;;4792069;29;20046;-80
2021/09/10 09:00:33;;;;;;;8.70;6.30;;;;;;;;;;4798483;29;20370;-80
2021/09/10 09:03:01;;;;;;;9.48;5.57;;;;;;;;;;4825845;29;20039;-83
2021/09/10 09:05:27;;;;;;;11.73;6.57;;;;;;;;;;4810378;29;20026;-82
2021/09/10 09:08:13;;;;;;;11.88;6.55;;;;;;;;;;4825319;29;20565;-81
2021/09/10 09:10:59;;;;;;;10.45;6.60;;;;;;;;;;4826321;29;20087;-80
2021/09/10 09:13:30;;;;;;;9.23;6.50;;;;;;;;;;4809421;29;20067;-83
2021/09/10 09:16:24;;;;;;;11.13;7.00;;;;;;;;;;4822235;29;20030;-82
2021/09/10 09:18:58;;;;;;;11.18;7.40;;;;;;;;;;4827719;29;20034;-82
2021/09/10 09:21:26;;;;;;;9.50;6.30;;;;;;;;;;4810721;29;20089;-82
2021/09/10 09:23:52;;;;;;;10.27;7.22;;;;;;;;;;4810246;29;20050;-82
2021/09/10 09:26:20;;;;;;;8.82;6.32;;;;;;;;;;4827957;29;20490;-82
2021/09/10 09:28:46;;;;;;;11.05;7.20;;;;;;;;;;4804260;29;20061;-82
2021/09/10 09:31:13;;;;;;;9.18;7.20;;;;;;;;;;4827732;29;20026;-81
2021/09/10 09:33:46;;;;;;;10.45;6.72;;;;;;;;;;4812988;29;20143;-81
2021/09/10 09:36:16;;;;;;;10.57;6.47;;;;;;;;;;4796607;29;20050;-81
2021/09/10 09:38:43;;;;;;;10.07;7.05;;;;;;;;;;4824892;29;20042;-82
2021/09/10 09:41:14;;;;;;;9.75;6.10;;;;;;;;;;4810897;29;20402;-82
2021/09/10 09:43:42;;;;;;;12.18;7.05;;;;;;;;;;4803813;29;20109;-81
2021/09/10 09:46:12;;;;;;;11.55;6.13;;;;;;;;;;4812778;29;20042;-82
2021/09/10 09:48:40;;;;;;;10.07;6.55;;;;;;;;;;4812042;29;20041;-82
2021/09/10 09:51:07;;;;;;;8.70;5.82;;;;;;;;;;4827556;29;20029;-83
2021/09/10 09:53:39;;;;;;;9.77;5.57;;;;;;;;;;4811675;29;20022;-81
2021/09/10 09:56:08;;;;;;;9.85;5.65;;;;;;;;;;4807020;29;20103;-81
2021/09/10 09:58:38;;;;;;;8.25;5.57;;;;;;;;;;4826258;29;20042;-81
2021/09/10 10:01:05;;;;;;;10.75;5.65;;;;;;;;;;4803948;29;20090;-82
2021/09/10 10:03:31;;;;;;;8.55;5.32;;;;;;;;;;4804159;29;20031;-82
2021/09/10 10:06:03;;;;;;;10.25;6.20;;;;;;;;;;4788117;29;20125;-82
2021/09/10 10:08:40;;;;;;;8.73;5.88;;;;;;;;;;4812632;29;20064;-82
2021/09/10 10:11:30;;;;;;;9.57;5.75;;;;;;;;;;4810196;29;20403;-82
2021/09/10 10:13:59;;;;;;;13.35;5.93;;;;;;;;;;4803893;29;20035;-82
2021/09/10 10:16:40;;;;;;;8.23;5.43;;;;;;;;;;4799218;29;20041;-83
2021/09/10 10:19:26;;;;;;;7.53;5.28;;;;;;;;;;4816833;29;20489;-83
2021/09/10 10:21:54;;;;;;;8.70;5.43;;;;;;;;;;4801352;29;20050;-82
2021/09/10 10:24:42;;;;;;;7.70;5.57;;;;;;;;;;4809141;29;20095;-81
2021/09/10 10:27:43;;;;;;;9.23;5.50;;;;;;;;;;4808595;29;20038;-82
2021/09/10 10:30:18;;;;;;;11.38;6.15;;;;;;;;;;4810375;29;20038;-82
2021/09/10 10:32:48;;;;;;;7.95;5.70;;;;;;;;;;4796403;29;20046;-82
2021/09/10 10:35:20;;;;;;;7.75;5.30;;;;;;;;;;4810442;29;20081;-80
2021/09/10 10:38:01;;;;;;;8.18;5.18;;;;;;;;;;4827898;29;20091;-82
2021/09/10 10:40:47;;;;;;;9.00;5.55;;;;;;;;;;4826267;29;20030;-82
2021/09/10 10:43:21;;;;;;;7.63;5.00;;;;;;;;;;4805277;29;20091;-81
2021/09/10 10:45:47;;;;;;;8.85;5.53;;;;;;;;;;4800141;29;20027;-82
2021/09/10 10:48:28;;;;;;;10.30;6.00;;;;;;;;;;4826260;29;20078;-83
2021/09/10 10:50:54;;;;;;;8.48;5.80;;;;;;;;;;4803691;29;20126;-82
2021/09/10 10:53:19;;;;;;;8.90;5.78;;;;;;;;;;4806445;29;20092;-81
2021/09/10 10:55:45;;;;;;;8.35;5.93;;;;;;;;;;4823475;29;20118;-82
2021/09/10 10:58:27;;;;;;;9.43;6.20;;;;;;;;;;4804424;29;20115;-82
2021/09/10 11:00:59;;;;;;;9.82;6.00;;;;;;;;;;4804649;29;20791;-83
2021/09/10 11:03:24;;;;;;;8.95;6.32;;;;;;;;;;4812496;29;20061;-83
2021/09/10 11:05:51;;;;;;;9.38;6.20;;;;;;;;;;4806579;29;20038;-82
2021/09/10 11:08:19;;;;;;;9.77;6.32;;;;;;;;;;4790166;29;20048;-81
2021/09/10 11:10:50;;;;;;;9.38;6.15;;;;;;;;;;4826464;29;20037;-81
2021/09/10 11:13:15;;;;;;;11.70;6.43;;;;;;;;;;4810472;29;20398;-82
2021/09/10 11:15:40;;;;;;;7.38;6.03;;;;;;;;;;4810257;29;20034;-82
2021/09/10 11:18:11;;;;;;;9.68;5.88;;;;;;;;;;4802698;29;20042;-82
2021/09/10 11:20:44;;;;;;;9.88;6.10;;;;;;;;;;4827703;29;20034;-82
2021/09/10 11:23:12;;;;;;;8.77;6.00;;;;;;;;;;4814495;29;20058;-82
2021/09/10 11:25:48;;;;;;;11.93;5.65;;;;;;;;;;4805506;29;20035;-81
2021/09/10 11:28:14;;;;;;;8.48;6.22;;;;;;;;;;4809440;29;20029;-82
2021/09/10 11:30:45;;;;;;;10.23;6.40;;;;;;;;;;4819843;29;20039;-81
2021/09/10 11:33:10;;;;;;;10.27;5.63;;;;;;;;;;4818300;29;20167;-82
2021/09/10 11:35:38;;;;;;;10.63;6.00;;;;;;;;;;4797785;29;20083;-82
2021/09/10 11:38:06;;;;;;;8.07;6.20;;;;;;;;;;4809901;29;20406;-82
2021/09/10 11:40:33;;;;;;;8.82;6.38;;;;;;;;;;4827350;29;20110;-81
2021/09/10 11:43:08;;;;;;;10.00;6.65;;;;;;;;;;4813489;29;20034;-81
2021/09/10 11:45:35;;;;;;;10.18;6.57;;;;;;;;;;4806195;29;20441;-82
2021/09/10 11:48:03;;;;;;;10.40;7.18;;;;;;;;;;4813647;29;20037;-82
2021/09/10 11:50:47;;;;;;;8.15;6.82;;;;;;;;;;4827109;29;20034;-82
2021/09/10 11:53:23;;;;;;;9.90;7.30;;;;;;;;;;4825033;29;20424;-82
2021/09/10 11:55:54;;;;;;;11.82;7.88;;;;;;;;;;4818234;29;20054;-80
2021/09/10 11:58:29;;;;;;;9.80;8.10;;;;;;;;;;4816279;29;20042;-82
2021/09/10 12:01:30;;;;;;;11.60;10.20;;;;;;;;;;4828876;29;20039;-82
2021/09/10 12:04:04;;;;;;;11.00;8.75;;;;;;;;;;4812706;29;20124;-80
2021/09/10 12:06:33;;;;;;;11.88;9.27;;;;;;;;;;4827631;29;20022;-82
2021/09/10 12:09:20;;;;;;;12.02;9.30;;;;;;;;;;4808109;29;20125;-83
2021/09/10 12:11:54;;;;;;;11.93;9.40;;;;;;;;;;4812902;29;20034;-82
2021/09/10 12:14:19;;;;;;;12.85;9.23;;;;;;;;;;4813357;29;20049;-81
2021/09/10 12:17:21;;;;;;;13.07;9.02;;;;;;;;;;4797501;29;20042;-82
2021/09/10 12:20:05;;;;;;;11.45;8.80;;;;;;;;;;4813320;29;20121;-81
2021/09/10 12:22:42;;;;;;;14.23;9.52;;;;;;;;;;4824563;29;20092;-81
2021/09/10 12:25:34;;;;;;;10.80;9.50;;;;;;;;;;4820505;29;20046;-82
2021/09/10 12:28:03;;;;;;;12.77;10.13;;;;;;;;;;4801775;29;20049;-80
2021/09/10 12:30:45;;;;;;;11.95;9.75;;;;;;;;;;4798975;29;20031;-81
2021/09/10 12:33:14;;;;;;;13.00;9.57;;;;;;;;;;4823857;29;20041;-80
2021/09/10 12:35:40;;;;;;;13.35;9.52;;;;;;;;;;4816173;29;20196;-80
2021/09/10 12:38:08;;;;;;;15.70;10.68;;;;;;;;;;4789266;29;20050;-81
2021/09/10 12:40:36;;;;;;;14.43;10.82;;;;;;;;;;4821610;29;20041;-84
2021/09/10 12:43:04;;;;;;;12.93;9.90;;;;;;;;;;4801763;29;20027;-82
2021/09/10 12:45:30;;;;;;;12.35;10.77;;;;;;;;;;4799742;29;20064;-85
2021/09/10 12:47:55;;;;;;;12.68;10.15;;;;;;;;;;4797949;29;20145;-82
2021/09/10 12:50:22;;;;;;;14.73;9.73;;;;;;;;;;4798799;29;20042;-81
2021/09/10 12:52:47;;;;;;;14.35;9.60;;;;;;;;;;4812914;29;20047;-82
2021/09/10 12:55:13;;;;;;;16.30;10.40;;;;;;;;;;4819217;29;20034;-81
2021/09/10 12:57:39;;;;;;;13.50;9.68;;;;;;;;;;4802866;29;20101;-85
2021/09/10 13:00:07;;;;;;;13.70;9.73;;;;;;;;;;4788611;29;20920;-82
2021/09/10 13:02:33;;;;;;;12.52;8.55;;;;;;;;;;4816587;29;20039;-83
2021/09/10 13:04:58;;;;;;;10.82;8.57;;;;;;;;;;4801366;29;20043;-82
2021/09/10 13:07:25;;;;;;;12.50;9.10;;;;;;;;;;4795923;29;20071;-84
2021/09/10 13:09:50;;;;;;;10.65;8.05;;;;;;;;;;4819098;29;20109;-84
2021/09/10 13:12:16;;;;;;;10.48;7.95;;;;;;;;;;4784103;29;20047;-82
2021/09/10 13:14:47;;;;;;;9.27;6.85;;;;;;;;;;4802531;29;20074;-82
2021/09/10 13:17:14;;;;;;;9.40;7.40;;;;;;;;;;4791929;29;20030;-86
2021/09/10 13:19:39;;;;;;;10.73;7.95;;;;;;;;;;4787399;29;20043;-83
2021/09/10 13:22:05;;;;;;;9.48;6.50;;;;;;;;;;4775442;29;20091;-81
2021/09/10 13:24:30;;;;;;;7.15;6.25;;;;;;;;;;4818761;29;20066;-86
2021/09/10 13:26:55;;;;;;;9.25;6.25;;;;;;;;;;4775292;29;20757;-83
2021/09/10 13:29:21;;;;;;;9.80;7.07;;;;;;;;;;4804720;29;20037;-83
2021/09/10 13:31:46;;;;;;;10.10;6.57;;;;;;;;;;4787146;29;20615;-83
2021/09/10 13:34:12;;;;;;;8.73;6.20;;;;;;;;;;4803232;29;20088;-83
2021/09/10 13:36:38;;;;;;;9.35;6.85;;;;;;;;;;4799224;29;20522;-81
2021/09/10 13:39:04;;;;;;;8.40;5.90;;;;;;;;;;4802126;29;20037;-87
2021/09/10 13:41:29;;;;;;;7.55;5.53;;;;;;;;;;4799490;29;20189;-82
2021/09/10 13:43:55;;;;;;;7.80;6.35;;;;;;;;;;4804048;29;20043;-82
2021/09/10 13:46:20;;;;;;;10.13;7.30;;;;;;;;;;4773882;29;20039;-81
2021/09/10 13:48:46;;;;;;;7.57;6.10;;;;;;;;;;4802778;29;20030;-82
2021/09/10 13:51:12;;;;;;;8.40;6.68;;;;;;;;;;4785310;29;20039;-82
2021/09/10 13:53:37;;;;;;;8.77;6.85;;;;;;;;;;4791927;29;20046;-82
2021/09/10 13:56:03;;;;;;;8.82;7.28;;;;;;;;;;4804210;29;20061;-83
2021/09/10 13:58:29;;;;;;;12.20;7.32;;;;;;;;;;4810557;29;20480;-87
2021/09/10 14:00:54;;;;;;;10.48;8.07;;;;;;;;;;4786815;29;20042;-83
2021/09/10 14:03:20;;;;;;;11.82;8.00;;;;;;;;;;4791069;29;20095;-82
2021/09/10 14:05:45;;;;;;;10.10;8.50;;;;;;;;;;4805380;29;20042;-83
2021/09/10 14:08:11;;;;;;;11.82;9.13;;;;;;;;;;4804338;29;20425;-82
2021/09/10 14:10:37;;;;;;;12.00;9.27;;;;;;;;;;4816095;29;20042;-83
2021/09/10 14:13:02;;;;;;;10.73;7.68;;;;;;;;;;4780312;29;20031;-82
2021/09/10 14:15:28;;;;;;;11.00;8.80;;;;;;;;;;4802643;29;20041;-82
2021/09/10 14:17:53;;;;;;;8.55;6.85;;;;;;;;;;4805174;29;20034;-87
2021/09/10 14:20:18;;;;;;;11.10;7.15;;;;;;;;;;4769481;29;20072;-83
2021/09/10 14:22:47;;;;;;;7.72;6.07;;;;;;;;;;4802891;29;20034;-82
2021/09/10 14:25:13;;;;;;;8.15;5.70;;;;;;;;;;4802139;29;20102;-82
2021/09/10 14:27:38;;;;;;;7.50;5.97;;;;;;;;;;4826558;29;20050;-86
2021/09/10 14:30:04;;;;;;;8.15;5.95;;;;;;;;;;4794119;29;20030;-82
2021/09/10 14:32:30;;;;;;;8.05;5.18;;;;;;;;;;4809555;29;20058;-86
2021/09/10 14:34:55;;;;;;;9.00;5.88;;;;;;;;;;4783615;29;20061;-82